createdAt,value
2023-03-26T00:01:38.826Z,7.93
2023-03-26T00:03:41.005Z,13.75
2023-03-26T00:05:44.466Z,9.20
2023-03-26T00:07:48.912Z,14.23
2023-03-26T00:09:50.727Z,10.18
2023-03-26T00:11:52.618Z,7.28
2023-03-26T00:13:57.030Z,9.73
2023-03-26T00:15:59.098Z,8.07
2023-03-26T00:18:01.009Z,9.27
2023-03-26T00:20:04.087Z,10.07
2023-03-26T00:22:06.001Z,9.85
2023-03-26T00:24:11.817Z,9.52
2023-03-26T00:26:13.661Z,8.82
2023-03-26T00:28:17.248Z,9.23
2023-03-26T00:30:19.457Z,10.38
2023-03-26T00:32:21.260Z,11.75
2023-03-26T00:34:23.127Z,9.77
2023-03-26T00:36:26.804Z,10.25
2023-03-26T00:38:28.962Z,6.97
2023-03-26T00:40:32.158Z,9.52
2023-03-26T00:42:34.154Z,13.07
2023-03-26T00:44:36.199Z,9.98
2023-03-26T00:46:38.086Z,9.60
2023-03-26T00:48:45.747Z,8.90
2023-03-26T00:50:48.182Z,10.40
2023-03-26T00:52:50.066Z,9.38
2023-03-26T00:54:52.207Z,10.13
2023-03-26T00:56:56.085Z,11.52
2023-03-26T00:58:58.050Z,12.23
2023-03-26T01:01:03.154Z,10.50
2023-03-26T01:03:05.488Z,8.80
2023-03-26T01:05:35.334Z,11.98
2023-03-26T01:07:37.211Z,10.45
2023-03-26T01:09:42.839Z,8.18
2023-03-26T01:11:45.107Z,8.93
2023-03-26T01:13:57.777Z,7.32
2023-03-26T01:16:02.136Z,6.03
2023-03-26T01:18:09.894Z,8.07
2023-03-26T01:20:18.890Z,9.35
2023-03-26T01:22:22.763Z,8.18
2023-03-26T01:24:24.635Z,6.85
2023-03-26T01:26:47.788Z,5.90
2023-03-26T01:28:51.376Z,5.40
2023-03-26T01:31:13.913Z,5.70
2023-03-26T01:33:26.327Z,4.80
2023-03-26T01:35:34.013Z,5.63
2023-03-26T01:37:54.079Z,5.20
2023-03-26T01:40:14.245Z,7.30
2023-03-26T01:42:18.779Z,4.20
2023-03-26T01:44:32.051Z,6.13
2023-03-26T01:46:36.990Z,6.25
2023-03-26T01:48:41.342Z,5.18
2023-03-26T01:50:43.383Z,3.63
2023-03-26T01:52:45.211Z,5.25
2023-03-26T01:54:47.126Z,4.78
2023-03-26T01:57:07.143Z,3.80
2023-03-26T01:59:16.781Z,3.15
2023-03-26T02:01:44.761Z,5.72
2023-03-26T02:03:53.587Z,9.00
2023-03-26T02:06:07.830Z,6.10
2023-03-26T02:08:22.732Z,7.75
2023-03-26T02:10:30.354Z,3.40
2023-03-26T02:12:32.253Z,4.07
2023-03-26T02:14:34.521Z,5.47
2023-03-26T02:16:36.456Z,4.68
2023-03-26T02:18:39.163Z,4.43
2023-03-26T02:22:45.847Z,4.75
2023-03-26T02:24:48.011Z,7.13
2023-03-26T02:26:49.854Z,4.30
2023-03-26T02:28:51.681Z,5.75
2023-03-26T02:30:57.683Z,3.00
2023-03-26T02:33:00.096Z,5.88
2023-03-26T02:35:02.360Z,5.03
2023-03-26T02:37:04.224Z,4.30
2023-03-26T02:39:06.070Z,3.70
2023-03-26T02:41:07.981Z,5.28
2023-03-26T02:43:09.823Z,4.78
2023-03-26T02:45:11.655Z,6.30
2023-03-26T02:47:13.473Z,1.90
2023-03-26T02:49:15.410Z,3.00
2023-03-26T02:51:18.376Z,3.58
2023-03-26T02:53:21.871Z,4.05
2023-03-26T02:55:23.826Z,4.10
2023-03-26T02:57:26.190Z,4.07
2023-03-26T02:59:28.072Z,3.67
2023-03-26T03:01:30.973Z,3.28
2023-03-26T03:03:32.991Z,2.85
2023-03-26T03:05:34.898Z,5.32
2023-03-26T03:07:38.723Z,2.90
2023-03-26T03:09:41.160Z,6.10
2023-03-26T03:11:43.009Z,3.85
2023-03-26T03:13:45.254Z,5.15
2023-03-26T03:15:47.255Z,5.43
2023-03-26T03:17:49.151Z,3.03
2023-03-26T03:19:51.046Z,5.10
2023-03-26T03:21:52.872Z,4.93
2023-03-26T03:23:55.598Z,2.92
2023-03-26T03:26:02.679Z,4.07
2023-03-26T03:28:04.861Z,3.65
2023-03-26T03:30:07.384Z,3.78
2023-03-26T03:32:09.214Z,3.55
2023-03-26T03:34:11.046Z,3.10
2023-03-26T03:36:19.691Z,3.13
2023-03-26T03:38:22.573Z,4.97
2023-03-26T03:40:24.423Z,3.50
2023-03-26T03:42:27.575Z,6.07
2023-03-26T03:44:29.517Z,4.18
2023-03-26T03:46:31.424Z,4.90
2023-03-26T03:48:33.570Z,5.95
2023-03-26T03:50:35.937Z,4.05
2023-03-26T03:52:37.896Z,5.03
2023-03-26T03:54:39.725Z,5.38
2023-03-26T03:56:41.569Z,3.53
2023-03-26T03:58:45.593Z,5.17
2023-03-26T04:00:48.812Z,3.00
2023-03-26T04:02:50.777Z,2.92
2023-03-26T04:04:53.174Z,3.90
2023-03-26T04:06:55.014Z,5.30
2023-03-26T04:08:57.117Z,5.93
2023-03-26T04:10:59.048Z,3.40
2023-03-26T04:13:01.089Z,5.93
2023-03-26T04:15:03.763Z,4.57
2023-03-26T04:19:08.590Z,4.47
2023-03-26T04:21:12.638Z,4.68
2023-03-26T04:23:18.196Z,3.65
2023-03-26T04:25:21.446Z,3.03
2023-03-26T04:27:27.349Z,4.00
2023-03-26T04:29:30.764Z,3.05
2023-03-26T04:31:34.252Z,5.28
2023-03-26T04:33:36.223Z,6.22
2023-03-26T04:35:38.232Z,4.57
2023-03-26T04:37:40.949Z,4.07
2023-03-26T04:41:44.635Z,4.25
2023-03-26T04:43:50.765Z,5.82
2023-03-26T04:45:53.349Z,5.38
2023-03-26T04:49:57.586Z,5.30
2023-03-26T04:51:59.488Z,3.55
2023-03-26T04:54:02.563Z,3.63
2023-03-26T04:56:13.649Z,6.82
2023-03-26T04:58:15.545Z,4.38
2023-03-26T05:00:19.204Z,6.57
2023-03-26T05:02:21.063Z,5.90
2023-03-26T05:04:22.935Z,6.97
2023-03-26T05:06:27.889Z,7.10
2023-03-26T05:08:30.370Z,6.32
2023-03-26T05:10:32.192Z,5.88
2023-03-26T05:12:34.590Z,5.33
2023-03-26T05:14:36.444Z,4.53
2023-03-26T05:16:39.614Z,6.03
2023-03-26T05:18:41.561Z,4.85
2023-03-26T05:20:43.691Z,3.42
2023-03-26T05:22:45.508Z,4.05
2023-03-26T05:24:47.336Z,3.00
2023-03-26T05:26:49.154Z,3.50
2023-03-26T05:28:52.539Z,8.13
2023-03-26T05:30:55.010Z,5.10
2023-03-26T05:32:57.160Z,3.53
2023-03-26T05:34:59.246Z,5.53
2023-03-26T05:37:01.107Z,4.30
2023-03-26T05:39:03.495Z,6.38
2023-03-26T05:41:06.931Z,4.00
2023-03-26T05:43:08.780Z,4.47
2023-03-26T05:45:11.848Z,5.35
2023-03-26T05:47:13.710Z,4.88
2023-03-26T05:49:15.742Z,4.38
2023-03-26T05:51:17.591Z,5.45
2023-03-26T05:53:20.404Z,6.50
2023-03-26T05:55:22.226Z,7.18
2023-03-26T05:57:28.320Z,5.63
2023-03-26T05:59:30.362Z,5.00
2023-03-26T06:01:32.250Z,5.05
2023-03-26T06:03:35.009Z,4.38
2023-03-26T06:05:37.502Z,4.80
2023-03-26T06:07:39.364Z,3.88
2023-03-26T06:09:41.264Z,5.70
2023-03-26T06:11:43.114Z,4.70
2023-03-26T06:13:45.331Z,3.83
2023-03-26T06:15:47.221Z,5.43
2023-03-26T06:17:49.282Z,4.20
2023-03-26T06:19:51.171Z,5.35
2023-03-26T06:21:53.190Z,5.00
2023-03-26T06:23:55.417Z,7.60
2023-03-26T06:25:57.334Z,5.28
2023-03-26T06:27:59.217Z,5.93
2023-03-26T06:30:01.175Z,5.60
2023-03-26T06:32:16.373Z,6.60
2023-03-26T06:34:20.974Z,5.15
2023-03-26T06:36:22.811Z,3.72
2023-03-26T06:38:24.798Z,6.97
2023-03-26T06:40:26.819Z,4.43
2023-03-26T06:42:28.618Z,4.15
2023-03-26T06:44:50.642Z,2.78
2023-03-26T06:46:52.445Z,3.70
2023-03-26T06:48:54.278Z,2.77
2023-03-26T06:50:56.349Z,3.70
2023-03-26T06:52:58.355Z,4.13
2023-03-26T06:55:00.317Z,2.65
2023-03-26T06:57:02.202Z,2.80
2023-03-26T06:59:04.164Z,2.88
2023-03-26T07:01:06.366Z,2.20
2023-03-26T07:03:08.734Z,5.65
2023-03-26T07:05:10.646Z,5.25
2023-03-26T07:07:13.465Z,6.20
2023-03-26T07:09:15.385Z,6.18
2023-03-26T07:11:19.571Z,4.80
2023-03-26T07:13:21.397Z,4.95
2023-03-26T07:15:24.166Z,3.83
2023-03-26T07:17:26.258Z,3.58
2023-03-26T07:19:28.159Z,4.80
2023-03-26T07:21:30.185Z,4.70
2023-03-26T07:23:32.214Z,3.88
2023-03-26T07:25:34.374Z,3.90
2023-03-26T07:27:37.605Z,2.40
2023-03-26T07:30:03.363Z,4.22
2023-03-26T07:32:29.197Z,2.10
2023-03-26T07:34:33.984Z,4.47
2023-03-26T07:37:00.085Z,2.80
2023-03-26T07:39:20.407Z,3.30
2023-03-26T07:41:48.682Z,2.22
2023-03-26T07:43:53.349Z,1.63
2023-03-26T07:45:56.382Z,1.35
2023-03-26T07:47:58.449Z,3.22
2023-03-26T07:50:00.679Z,1.75
2023-03-26T07:52:02.759Z,3.10
2023-03-26T07:54:05.001Z,1.70
2023-03-26T07:56:27.030Z,4.85
2023-03-26T07:58:50.215Z,4.65
2023-03-26T08:01:22.648Z,3.08
2023-03-26T08:03:30.572Z,1.80
2023-03-26T08:05:43.866Z,2.75
2023-03-26T08:08:06.843Z,2.50
2023-03-26T08:10:14.426Z,2.53
2023-03-26T08:12:46.192Z,4.35
2023-03-26T08:14:56.904Z,3.45
2023-03-26T08:17:11.791Z,3.25
2023-03-26T08:19:31.345Z,2.67
2023-03-26T08:21:36.607Z,2.67
2023-03-26T08:24:12.736Z,3.33
2023-03-26T08:26:32.765Z,4.00
2023-03-26T08:29:04.279Z,2.83
2023-03-26T08:31:07.794Z,4.22
2023-03-26T08:33:18.040Z,2.90
2023-03-26T08:35:20.043Z,2.00
2023-03-26T08:37:22.015Z,2.95
2023-03-26T08:39:23.888Z,3.28
2023-03-26T08:41:44.039Z,1.20
2023-03-26T08:43:58.093Z,1.40
2023-03-26T08:46:40.816Z,1.70
2023-03-26T08:48:47.892Z,3.25
2023-03-26T08:51:12.968Z,5.70
2023-03-26T08:53:17.886Z,3.58
2023-03-26T08:55:41.869Z,3.75
2023-03-26T08:58:07.854Z,1.88
2023-03-26T09:00:12.868Z,2.90
2023-03-26T09:02:26.771Z,3.28
2023-03-26T09:04:46.992Z,5.28
2023-03-26T09:07:29.632Z,4.85
2023-03-26T09:09:34.527Z,4.75
2023-03-26T09:11:39.497Z,4.15
2023-03-26T09:14:08.891Z,5.40
2023-03-26T09:16:35.625Z,5.47
2023-03-26T09:18:46.575Z,4.72
2023-03-26T09:20:52.935Z,4.00
2023-03-26T09:23:15.058Z,4.15
2023-03-26T09:25:50.492Z,6.90
2023-03-26T09:28:14.283Z,3.90
2023-03-26T09:30:37.077Z,4.88
2023-03-26T09:32:58.017Z,3.10
2023-03-26T09:35:08.585Z,6.88
2023-03-26T09:38:03.528Z,4.32
2023-03-26T09:40:22.614Z,4.43
2023-03-26T09:42:34.888Z,7.28
2023-03-26T09:44:58.295Z,3.47
2023-03-26T09:47:23.041Z,5.97
2023-03-26T09:49:43.086Z,4.03
2023-03-26T09:52:22.238Z,5.55
2023-03-26T09:54:57.723Z,6.28
2023-03-26T09:56:59.590Z,5.05
2023-03-26T09:59:22.605Z,2.28
2023-03-26T10:02:01.914Z,3.03
2023-03-26T10:04:14.708Z,3.78
2023-03-26T10:06:26.018Z,5.45
2023-03-26T10:08:49.779Z,3.92
2023-03-26T10:11:05.832Z,3.65
2023-03-26T10:13:31.586Z,4.80
2023-03-26T10:15:49.330Z,4.82
2023-03-26T10:18:27.688Z,7.65
2023-03-26T10:20:38.085Z,4.60
2023-03-26T10:22:50.390Z,6.75
2023-03-26T10:25:16.767Z,5.35
2023-03-26T10:27:22.565Z,3.17
2023-03-26T10:29:51.171Z,3.50
2023-03-26T10:32:23.881Z,3.20
2023-03-26T10:34:45.061Z,4.25
2023-03-26T10:36:56.354Z,5.05
2023-03-26T10:39:36.759Z,6.70
2023-03-26T10:42:16.879Z,4.40
2023-03-26T10:44:43.707Z,4.20
2023-03-26T10:47:03.462Z,5.00
2023-03-26T10:49:16.829Z,4.53
2023-03-26T10:51:30.559Z,3.03
2023-03-26T10:53:37.492Z,4.82
2023-03-26T10:55:46.950Z,2.67
2023-03-26T10:57:56.262Z,5.07
2023-03-26T10:59:58.498Z,1.48
2023-03-26T11:02:17.933Z,3.40
2023-03-26T11:04:54.899Z,5.57
2023-03-26T11:07:19.421Z,2.50
2023-03-26T11:09:35.145Z,3.67
2023-03-26T11:11:45.039Z,2.58
2023-03-26T11:14:32.162Z,5.32
2023-03-26T11:17:08.408Z,2.03
2023-03-26T11:19:53.214Z,3.55
2023-03-26T11:22:02.650Z,2.33
2023-03-26T11:24:21.099Z,3.53
2023-03-26T11:26:44.325Z,4.18
2023-03-26T11:31:46.868Z,2.10
2023-03-26T11:33:54.917Z,3.65
2023-03-26T11:36:01.488Z,3.55
2023-03-26T11:38:08.065Z,3.00
2023-03-26T11:40:27.949Z,2.33
2023-03-26T11:42:29.924Z,4.55
2023-03-26T11:44:37.832Z,3.95
2023-03-26T11:46:42.774Z,5.05
2023-03-26T11:48:49.911Z,3.63
2023-03-26T11:51:01.675Z,7.03
2023-03-26T11:53:12.475Z,6.18
2023-03-26T11:55:14.328Z,2.75
2023-03-26T11:57:25.935Z,2.07
2023-03-26T11:59:32.745Z,2.10
2023-03-26T12:01:52.842Z,1.58
2023-03-26T12:04:07.168Z,1.92
2023-03-26T12:06:27.302Z,1.45
2023-03-26T12:08:33.743Z,1.70
2023-03-26T12:10:38.135Z,1.60
2023-03-26T12:12:42.076Z,1.77
2023-03-26T12:14:44.004Z,2.13
2023-03-26T12:16:58.261Z,3.03
2023-03-26T12:19:07.355Z,4.20
2023-03-26T12:21:17.562Z,4.47
2023-03-26T12:23:56.265Z,5.20
2023-03-26T12:26:18.391Z,3.75
2023-03-26T12:28:21.061Z,4.38
2023-03-26T12:32:46.788Z,3.70
2023-03-26T12:34:48.918Z,3.88
2023-03-26T12:36:55.452Z,4.30
2023-03-26T12:39:16.586Z,5.43
2023-03-26T12:44:43.806Z,2.67
2023-03-26T12:44:56.530Z,4.30
2023-03-26T12:47:56.130Z,4.03
2023-03-26T12:48:55.379Z,3.47
2023-03-26T12:51:08.197Z,5.20
2023-03-26T12:53:28.386Z,3.08
2023-03-26T12:55:36.822Z,2.70
2023-03-26T12:58:00.838Z,3.28
2023-03-26T13:00:16.432Z,2.90
2023-03-26T13:02:48.968Z,5.32
2023-03-26T13:05:28.644Z,4.20
2023-03-26T13:07:43.834Z,3.58
2023-03-26T13:10:18.187Z,2.22
2023-03-26T13:12:32.035Z,3.08
2023-03-26T13:15:12.481Z,3.17
2023-03-26T13:17:27.256Z,2.70
2023-03-26T13:19:35.248Z,4.32
2023-03-26T13:21:51.758Z,3.60
2023-03-26T13:24:01.343Z,3.50
2023-03-26T13:26:16.015Z,3.72
2023-03-26T13:28:27.046Z,3.25
2023-03-26T13:30:39.038Z,2.75
2023-03-26T13:33:03.025Z,2.50
2023-03-26T13:35:29.777Z,5.43
2023-03-26T13:37:42.368Z,2.53
2023-03-26T13:40:04.942Z,5.88
2023-03-26T13:42:26.818Z,3.88
2023-03-26T13:45:04.626Z,3.70
2023-03-26T13:47:21.492Z,3.88
2023-03-26T13:49:46.588Z,4.40
2023-03-26T13:51:56.518Z,3.60
2023-03-26T13:54:27.620Z,5.35
2023-03-26T13:57:01.397Z,3.92
2023-03-26T13:59:07.659Z,4.65
2023-03-26T14:01:23.149Z,3.33
2023-03-26T14:03:47.238Z,7.15
2023-03-26T14:05:51.376Z,3.47
2023-03-26T14:08:04.778Z,4.50
2023-03-26T14:10:15.837Z,3.90
2023-03-26T14:13:10.366Z,4.97
2023-03-26T14:15:26.504Z,4.60
2023-03-26T14:17:38.564Z,5.28
2023-03-26T14:19:53.074Z,6.67
2023-03-26T14:22:00.306Z,4.35
2023-03-26T14:24:42.900Z,5.35
2023-03-26T14:27:04.553Z,4.55
2023-03-26T14:29:12.261Z,3.72
2023-03-26T14:31:43.321Z,3.75
2023-03-26T14:34:07.466Z,2.30
2023-03-26T14:36:34.231Z,7.70
2023-03-26T14:38:38.845Z,2.38
2023-03-26T14:40:52.610Z,3.47
2023-03-26T14:42:59.118Z,3.95
2023-03-26T14:45:26.341Z,2.60
2023-03-26T14:47:28.383Z,2.70
2023-03-26T14:49:41.540Z,3.67
2023-03-26T14:51:53.738Z,2.13
2023-03-26T14:54:08.030Z,2.90
2023-03-26T14:56:34.167Z,2.72
2023-03-26T14:58:56.207Z,4.72
2023-03-26T15:01:23.065Z,3.65
2023-03-26T15:03:51.184Z,2.92
2023-03-26T15:06:17.544Z,3.72
2023-03-26T15:08:33.756Z,3.70
2023-03-26T15:10:41.923Z,2.30
2023-03-26T15:13:14.896Z,3.15
2023-03-26T15:15:38.608Z,4.30
2023-03-26T15:18:29.434Z,3.33
2023-03-26T15:20:50.814Z,5.70
2023-03-26T15:23:15.073Z,4.68
2023-03-26T15:25:46.191Z,2.97
2023-03-26T15:28:26.552Z,3.58
2023-03-26T15:31:07.180Z,3.00
2023-03-26T15:33:46.678Z,4.78
2023-03-26T15:36:34.590Z,4.85
2023-03-26T15:38:56.137Z,3.30
2023-03-26T15:41:20.109Z,6.10
2023-03-26T15:43:22.460Z,4.82
2023-03-26T15:45:32.151Z,4.57
2023-03-26T15:47:47.296Z,3.40
2023-03-26T15:50:09.510Z,4.88
2023-03-26T15:52:36.573Z,3.03
2023-03-26T15:55:02.544Z,3.08
2023-03-26T15:57:47.472Z,5.28
2023-03-26T16:00:15.451Z,2.65
2023-03-26T16:02:41.585Z,4.80
2023-03-26T16:04:58.233Z,7.53
2023-03-26T16:07:03.875Z,4.07
2023-03-26T16:09:38.816Z,4.97
2023-03-26T16:11:54.266Z,3.63
2023-03-26T16:14:34.379Z,3.70
2023-03-26T16:16:59.318Z,2.80
2023-03-26T16:19:20.222Z,3.08
2023-03-26T16:21:32.841Z,4.32
2023-03-26T16:23:47.622Z,2.47
2023-03-26T16:26:11.243Z,3.00
2023-03-26T16:28:28.043Z,5.82
2023-03-26T16:30:31.605Z,4.38
2023-03-26T16:32:37.140Z,5.32
2023-03-26T16:34:55.697Z,3.60
2023-03-26T16:36:59.499Z,6.05
2023-03-26T16:39:04.816Z,6.65
2023-03-26T16:41:16.146Z,6.20
2023-03-26T16:43:56.303Z,6.68
2023-03-26T16:46:22.713Z,4.82
2023-03-26T16:48:33.693Z,5.47
2023-03-26T16:50:48.690Z,7.57
2023-03-26T16:53:05.732Z,7.18
2023-03-26T16:55:26.412Z,6.95
2023-03-26T16:57:56.306Z,7.88
2023-03-26T17:00:16.663Z,8.88
2023-03-26T17:02:31.342Z,6.15
2023-03-26T17:04:33.526Z,7.03
2023-03-26T17:06:53.972Z,8.23
2023-03-26T17:09:21.200Z,7.85
2023-03-26T17:11:50.728Z,8.13
2023-03-26T17:14:07.811Z,7.85
2023-03-26T17:16:19.485Z,10.00
2023-03-26T17:18:43.258Z,7.85
2023-03-26T17:21:03.820Z,9.15
2023-03-26T17:23:19.388Z,8.65
2023-03-26T17:25:42.548Z,9.40
2023-03-26T17:27:50.882Z,10.85
2023-03-26T17:29:58.047Z,8.77
2023-03-26T17:32:01.076Z,10.05
2023-03-26T17:34:37.920Z,11.05
2023-03-26T17:36:43.374Z,10.90
2023-03-26T17:38:47.955Z,9.32
2023-03-26T17:40:58.677Z,11.55
2023-03-26T17:43:02.632Z,13.35
2023-03-26T17:45:20.498Z,13.63
2023-03-26T17:47:32.748Z,15.65
2023-03-26T17:49:34.693Z,17.77
2023-03-26T17:51:42.246Z,16.15
2023-03-26T17:53:44.081Z,13.77
2023-03-26T17:55:46.027Z,12.30
2023-03-26T17:57:59.222Z,20.02
2023-03-26T18:00:01.280Z,18.35
2023-03-26T18:02:05.445Z,25.83
2023-03-26T18:04:08.599Z,21.88
2023-03-26T18:06:18.106Z,22.95
2023-03-26T18:08:37.128Z,22.55
2023-03-26T18:10:46.252Z,27.63
2023-03-26T18:12:54.783Z,24.30
2023-03-26T18:15:07.991Z,22.90
2023-03-26T18:17:09.835Z,23.83
2023-03-26T18:19:19.531Z,22.77
2023-03-26T18:21:42.965Z,21.73
2023-03-26T18:23:46.205Z,21.05
2023-03-26T18:25:59.856Z,23.80
2023-03-26T18:28:04.194Z,21.75
2023-03-26T18:30:17.527Z,27.17
2023-03-26T18:32:22.280Z,30.17
2023-03-26T18:34:26.031Z,27.00
2023-03-26T18:36:28.024Z,26.55
2023-03-26T18:38:35.864Z,24.60
2023-03-26T18:40:41.035Z,24.42
2023-03-26T18:42:55.249Z,27.13
2023-03-26T18:44:59.840Z,27.55
2023-03-26T18:47:07.205Z,29.35
2023-03-26T18:49:18.113Z,30.73
2023-03-26T18:51:23.182Z,29.20
2023-03-26T18:53:32.343Z,32.13
2023-03-26T18:55:39.305Z,38.85
2023-03-26T18:57:42.226Z,29.25
2023-03-26T18:59:45.563Z,27.83
2023-03-26T19:01:48.677Z,24.50
2023-03-26T19:03:50.672Z,20.55
2023-03-26T19:05:56.607Z,20.80
2023-03-26T19:07:59.754Z,18.55
2023-03-26T19:10:01.661Z,20.38
2023-03-26T19:12:08.647Z,13.68
2023-03-26T19:14:28.712Z,15.13
2023-03-26T19:16:34.128Z,12.88
2023-03-26T19:18:36.647Z,12.00
2023-03-26T19:21:04.812Z,11.60
2023-03-26T19:23:09.301Z,8.82
2023-03-26T19:25:30.124Z,10.25
2023-03-26T19:27:32.149Z,10.38
2023-03-26T19:29:34.311Z,12.38
2023-03-26T19:31:38.120Z,7.88
2023-03-26T19:33:41.635Z,14.45
2023-03-26T19:35:44.651Z,16.77
2023-03-26T19:37:51.358Z,12.10
2023-03-26T19:39:54.446Z,11.52
2023-03-26T19:41:56.438Z,12.10
2023-03-26T19:44:20.531Z,12.02
2023-03-26T19:46:22.831Z,11.85
2023-03-26T19:48:45.897Z,17.73
2023-03-26T19:50:56.958Z,15.57
2023-03-26T19:53:16.748Z,10.30
2023-03-26T19:55:27.277Z,11.50
2023-03-26T19:57:32.982Z,10.65
2023-03-26T19:59:34.829Z,14.93
2023-03-26T20:01:36.749Z,12.43
2023-03-26T20:03:40.681Z,14.73
2023-03-26T20:05:42.720Z,12.38
2023-03-26T20:07:44.898Z,13.60
2023-03-26T20:09:46.682Z,15.20
2023-03-26T20:11:54.296Z,12.68
2023-03-26T20:13:56.294Z,12.93
2023-03-26T20:16:05.223Z,10.98
2023-03-26T20:18:08.691Z,15.13
2023-03-26T20:20:14.196Z,13.10
2023-03-26T20:22:20.053Z,16.42
2023-03-26T20:24:24.058Z,22.45
2023-03-26T20:26:25.967Z,16.83
2023-03-26T20:28:28.107Z,14.48
2023-03-26T20:32:34.695Z,16.45
2023-03-26T20:34:36.647Z,20.00
2023-03-26T20:36:38.661Z,16.67
2023-03-26T20:38:42.141Z,12.75
2023-03-26T20:40:44.841Z,15.63
2023-03-26T20:44:48.481Z,16.50
2023-03-26T20:46:50.577Z,27.00
2023-03-26T20:48:53.652Z,17.05
2023-03-26T20:50:57.252Z,16.13
2023-03-26T20:53:00.801Z,15.35
2023-03-26T20:55:03.420Z,12.55
2023-03-26T20:57:05.400Z,15.65
2023-03-26T20:59:11.023Z,18.85
2023-03-26T21:01:13.918Z,21.00
2023-03-26T21:03:17.324Z,23.15
2023-03-26T21:05:24.510Z,17.30
2023-03-26T21:07:26.389Z,20.70
2023-03-26T21:09:35.455Z,17.88
2023-03-26T21:11:57.488Z,27.55
2023-03-26T21:13:59.352Z,24.23
2023-03-26T21:16:01.285Z,23.23
2023-03-26T21:18:03.610Z,27.15
2023-03-26T21:20:13.540Z,52.97
2023-03-26T21:22:27.477Z,30.42
2023-03-26T21:25:05.619Z,29.75
2023-03-26T21:27:25.313Z,23.20
2023-03-26T21:29:27.502Z,31.27
2023-03-26T21:31:34.449Z,20.73
2023-03-26T21:33:36.388Z,28.83
2023-03-26T21:35:38.527Z,26.90
2023-03-26T21:37:44.591Z,27.67
2023-03-26T21:39:49.841Z,33.15
2023-03-26T21:42:05.179Z,26.98
2023-03-26T21:44:08.533Z,35.97
2023-03-26T21:48:13.008Z,25.92
2023-03-26T21:50:20.669Z,32.70
2023-03-26T21:52:23.965Z,38.95
2023-03-26T21:54:32.644Z,30.98
2023-03-26T21:56:43.808Z,33.63
2023-03-26T21:58:57.043Z,31.38
2023-03-26T22:01:13.380Z,31.42
2023-03-26T22:03:28.172Z,25.83
2023-03-26T22:05:37.298Z,24.75
2023-03-26T22:07:51.018Z,28.02
2023-03-26T22:09:53.041Z,31.20
2023-03-26T22:11:54.949Z,31.75
2023-03-26T22:13:57.008Z,24.00
2023-03-26T22:15:58.912Z,28.77
2023-03-26T22:18:02.034Z,37.35
2023-03-26T22:20:09.145Z,38.67
2023-03-26T22:22:11.045Z,30.50
2023-03-26T22:24:12.860Z,35.47
2023-03-26T22:26:14.659Z,39.53
2023-03-26T22:28:16.691Z,36.13
2023-03-26T22:30:20.722Z,34.60
2023-03-26T22:32:23.192Z,46.92
2023-03-26T22:34:25.144Z,41.08
2023-03-26T22:36:27.475Z,31.35
2023-03-26T22:38:29.325Z,39.55
2023-03-26T22:40:31.216Z,34.95
2023-03-26T22:42:32.999Z,38.88
2023-03-26T22:44:34.917Z,33.83
2023-03-26T22:46:36.762Z,38.38
2023-03-26T22:48:40.745Z,35.47
2023-03-26T22:50:42.595Z,36.53
2023-03-26T22:52:44.392Z,35.70
2023-03-26T22:54:46.234Z,27.57
2023-03-26T22:56:48.373Z,45.25
2023-03-26T22:58:50.351Z,38.55
2023-03-26T23:00:52.319Z,44.03
2023-03-26T23:02:55.964Z,40.47
2023-03-26T23:04:58.047Z,35.25
2023-03-26T23:07:00.240Z,47.58
2023-03-26T23:09:02.128Z,53.13
2023-03-26T23:11:18.005Z,33.05
2023-03-26T23:13:20.975Z,41.17
2023-03-26T23:15:22.841Z,37.42
2023-03-26T23:17:24.852Z,34.45
2023-03-26T23:19:26.688Z,43.42
2023-03-26T23:21:28.510Z,44.70
2023-03-26T23:23:31.690Z,38.30
2023-03-26T23:25:33.874Z,44.80
2023-03-26T23:27:36.070Z,42.53
2023-03-26T23:29:38.015Z,39.15
2023-03-26T23:31:42.090Z,47.92
2023-03-26T23:33:47.561Z,38.30
2023-03-26T23:35:57.055Z,33.15
2023-03-26T23:38:02.249Z,36.53
2023-03-26T23:40:10.198Z,32.65
2023-03-26T23:42:12.131Z,34.85
2023-03-26T23:44:14.672Z,36.80
2023-03-26T23:46:18.007Z,43.78
2023-03-26T23:48:22.470Z,36.90
2023-03-26T23:50:24.295Z,32.53
2023-03-26T23:52:26.115Z,34.15
2023-03-26T23:54:28.026Z,36.88
2023-03-26T23:56:30.212Z,38.42
2023-03-26T23:58:32.558Z,33.25
